sensor_id;sensor_type;location;lat;lon;timestamp;P1;durP1;ratioP1;P2;durP2;ratioP2
37787;SDS011;23627;53.302;-6.362;2023-05-07T00:01:46;3.65;;;1.73;;
37787;SDS011;23627;53.302;-6.362;2023-05-07T00:04:11;4.03;;;1.52;;
37787;SDS011;23627;53.302;-6.362;2023-05-07T00:06:38;5.57;;;1.70;;
37787;SDS011;23627;53.302;-6.362;2023-05-07T00:09:04;4.22;;;1.55;;
37787;SDS011;23627;53.302;-6.362;2023-05-07T00:11:31;3.78;;;1.50;;
37787;SDS011;23627;53.302;-6.362;2023-05-07T00:13:57;3.55;;;1.60;;
37787;SDS011;23627;53.302;-6.362;2023-05-07T00:16:22;3.72;;;1.60;;
37787;SDS011;23627;53.302;-6.362;2023-05-07T00:18:48;5.13;;;1.80;;
37787;SDS011;23627;53.302;-6.362;2023-05-07T00:21:14;4.75;;;2.10;;
37787;SDS011;23627;53.302;-6.362;2023-05-07T00:23:40;3.30;;;1.58;;
37787;SDS011;23627;53.302;-6.362;2023-05-07T00:26:05;3.90;;;1.60;;
37787;SDS011;23627;53.302;-6.362;2023-05-07T00:28:31;4.90;;;1.90;;
37787;SDS011;23627;53.302;-6.362;2023-05-07T00:30:57;6.45;;;2.10;;
37787;SDS011;23627;53.302;-6.362;2023-05-07T00:33:23;4.35;;;1.65;;
37787;SDS011;23627;53.302;-6.362;2023-05-07T00:35:51;5.43;;;1.65;;
37787;SDS011;23627;53.302;-6.362;2023-05-07T00:38:19;5.25;;;1.85;;
37787;SDS011;23627;53.302;-6.362;2023-05-07T00:40:45;3.65;;;1.67;;
37787;SDS011;23627;53.302;-6.362;2023-05-07T00:43:10;3.70;;;1.67;;
37787;SDS011;23627;53.302;-6.362;2023-05-07T00:45:37;4.80;;;1.70;;
37787;SDS011;23627;53.302;-6.362;2023-05-07T00:48:04;4.20;;;1.73;;
37787;SDS011;23627;53.302;-6.362;2023-05-07T00:50:30;3.97;;;1.70;;
37787;SDS011;23627;53.302;-6.362;2023-05-07T00:52:57;3.80;;;1.98;;
37787;SDS011;23627;53.302;-6.362;2023-05-07T00:55:25;5.15;;;1.58;;
37787;SDS011;23627;53.302;-6.362;2023-05-07T00:57:51;3.97;;;1.55;;
37787;SDS011;23627;53.302;-6.362;2023-05-07T01:00:17;5.20;;;1.88;;
37787;SDS011;23627;53.302;-6.362;2023-05-07T01:02:43;4.75;;;1.52;;
37787;SDS011;23627;53.302;-6.362;2023-05-07T01:05:11;5.50;;;1.80;;
37787;SDS011;23627;53.302;-6.362;2023-05-07T01:07:39;3.95;;;1.67;;
37787;SDS011;23627;53.302;-6.362;2023-05-07T01:10:05;4.97;;;1.90;;
37787;SDS011;23627;53.302;-6.362;2023-05-07T01:12:32;5.57;;;1.67;;
37787;SDS011;23627;53.302;-6.362;2023-05-07T01:14:59;6.18;;;1.77;;
37787;SDS011;23627;53.302;-6.362;2023-05-07T01:17:25;4.88;;;2.03;;
37787;SDS011;23627;53.302;-6.362;2023-05-07T01:19:51;3.97;;;1.63;;
37787;SDS011;23627;53.302;-6.362;2023-05-07T01:22:51;4.25;;;1.70;;
37787;SDS011;23627;53.302;-6.362;2023-05-07T01:25:13;2.03;;;1.38;;
37787;SDS011;23627;53.302;-6.362;2023-05-07T01:27:41;3.28;;;1.40;;
37787;SDS011;23627;53.302;-6.362;2023-05-07T01:30:07;4.22;;;1.55;;
37787;SDS011;23627;53.302;-6.362;2023-05-07T01:32:35;2.90;;;1.38;;
37787;SDS011;23627;53.302;-6.362;2023-05-07T01:35:12;4.07;;;1.58;;
37787;SDS011;23627;53.302;-6.362;2023-05-07T01:37:43;3.63;;;1.60;;
37787;SDS011;23627;53.302;-6.362;2023-05-07T01:40:10;3.53;;;1.40;;
37787;SDS011;23627;53.302;-6.362;2023-05-07T01:42:36;4.38;;;1.80;;
37787;SDS011;23627;53.302;-6.362;2023-05-07T01:45:02;4.32;;;1.73;;
37787;SDS011;23627;53.302;-6.362;2023-05-07T01:47:29;3.80;;;1.63;;
37787;SDS011;23627;53.302;-6.362;2023-05-07T01:49:55;3.67;;;1.55;;
37787;SDS011;23627;53.302;-6.362;2023-05-07T01:52:22;3.95;;;1.65;;
37787;SDS011;23627;53.302;-6.362;2023-05-07T01:54:48;3.83;;;1.40;;
37787;SDS011;23627;53.302;-6.362;2023-05-07T01:57:14;3.70;;;1.58;;
37787;SDS011;23627;53.302;-6.362;2023-05-07T01:59:40;3.88;;;1.30;;
37787;SDS011;23627;53.302;-6.362;2023-05-07T02:02:06;4.95;;;1.52;;
37787;SDS011;23627;53.302;-6.362;2023-05-07T02:04:31;2.83;;;1.30;;
37787;SDS011;23627;53.302;-6.362;2023-05-07T02:06:57;2.72;;;1.27;;
37787;SDS011;23627;53.302;-6.362;2023-05-07T02:09:23;3.88;;;1.40;;
37787;SDS011;23627;53.302;-6.362;2023-05-07T02:11:49;4.30;;;1.40;;
37787;SDS011;23627;53.302;-6.362;2023-05-07T02:14:14;2.80;;;1.40;;
37787;SDS011;23627;53.302;-6.362;2023-05-07T02:16:40;2.95;;;1.50;;
37787;SDS011;23627;53.302;-6.362;2023-05-07T02:19:06;2.22;;;1.30;;
37787;SDS011;23627;53.302;-6.362;2023-05-07T02:21:32;2.75;;;1.40;;
37787;SDS011;23627;53.302;-6.362;2023-05-07T02:23:58;3.42;;;1.27;;
37787;SDS011;23627;53.302;-6.362;2023-05-07T02:26:23;2.72;;;1.10;;
37787;SDS011;23627;53.302;-6.362;2023-05-07T02:28:50;2.10;;;1.27;;
37787;SDS011;23627;53.302;-6.362;2023-05-07T02:31:17;2.97;;;1.40;;
37787;SDS011;23627;53.302;-6.362;2023-05-07T02:33:42;3.15;;;1.27;;
37787;SDS011;23627;53.302;-6.362;2023-05-07T02:36:08;3.70;;;1.20;;
37787;SDS011;23627;53.302;-6.362;2023-05-07T02:38:35;3.88;;;1.40;;
37787;SDS011;23627;53.302;-6.362;2023-05-07T02:41:02;2.17;;;1.30;;
37787;SDS011;23627;53.302;-6.362;2023-05-07T02:43:28;2.92;;;1.33;;
37787;SDS011;23627;53.302;-6.362;2023-05-07T02:46:00;4.20;;;1.23;;
37787;SDS011;23627;53.302;-6.362;2023-05-07T02:48:27;1.80;;;1.02;;
37787;SDS011;23627;53.302;-6.362;2023-05-07T02:50:53;2.95;;;1.10;;
37787;SDS011;23627;53.302;-6.362;2023-05-07T02:53:19;3.17;;;1.35;;
37787;SDS011;23627;53.302;-6.362;2023-05-07T02:55:45;4.30;;;1.40;;
37787;SDS011;23627;53.302;-6.362;2023-05-07T02:58:11;2.42;;;1.38;;
37787;SDS011;23627;53.302;-6.362;2023-05-07T03:00:36;3.10;;;1.27;;
37787;SDS011;23627;53.302;-6.362;2023-05-07T03:03:02;2.88;;;1.30;;
37787;SDS011;23627;53.302;-6.362;2023-05-07T03:05:28;1.92;;;1.27;;
37787;SDS011;23627;53.302;-6.362;2023-05-07T03:07:54;3.38;;;1.25;;
37787;SDS011;23627;53.302;-6.362;2023-05-07T03:10:19;4.20;;;1.45;;
37787;SDS011;23627;53.302;-6.362;2023-05-07T03:12:45;2.42;;;1.30;;
37787;SDS011;23627;53.302;-6.362;2023-05-07T03:15:11;2.80;;;1.25;;
37787;SDS011;23627;53.302;-6.362;2023-05-07T03:17:37;2.88;;;1.45;;
37787;SDS011;23627;53.302;-6.362;2023-05-07T03:20:04;2.58;;;1.30;;
37787;SDS011;23627;53.302;-6.362;2023-05-07T03:22:30;3.25;;;1.40;;
37787;SDS011;23627;53.302;-6.362;2023-05-07T03:24:56;2.92;;;1.10;;
37787;SDS011;23627;53.302;-6.362;2023-05-07T03:27:21;2.08;;;1.23;;
37787;SDS011;23627;53.302;-6.362;2023-05-07T03:29:47;3.30;;;1.40;;
37787;SDS011;23627;53.302;-6.362;2023-05-07T03:32:13;3.78;;;1.33;;
37787;SDS011;23627;53.302;-6.362;2023-05-07T03:34:39;2.15;;;1.00;;
37787;SDS011;23627;53.302;-6.362;2023-05-07T03:37:05;2.50;;;1.15;;
37787;SDS011;23627;53.302;-6.362;2023-05-07T03:39:31;2.63;;;1.20;;
37787;SDS011;23627;53.302;-6.362;2023-05-07T03:41:57;2.33;;;1.20;;
37787;SDS011;23627;53.302;-6.362;2023-05-07T03:44:23;1.85;;;1.20;;
37787;SDS011;23627;53.302;-6.362;2023-05-07T03:46:49;2.10;;;1.30;;
37787;SDS011;23627;53.302;-6.362;2023-05-07T03:49:15;2.42;;;1.15;;
37787;SDS011;23627;53.302;-6.362;2023-05-07T03:51:41;3.95;;;1.30;;
37787;SDS011;23627;53.302;-6.362;2023-05-07T03:54:07;1.83;;;1.13;;
37787;SDS011;23627;53.302;-6.362;2023-05-07T03:56:32;2.17;;;0.90;;
37787;SDS011;23627;53.302;-6.362;2023-05-07T03:58:59;1.77;;;0.90;;
37787;SDS011;23627;53.302;-6.362;2023-05-07T04:01:25;2.42;;;1.10;;
37787;SDS011;23627;53.302;-6.362;2023-05-07T04:03:51;2.15;;;1.00;;
37787;SDS011;23627;53.302;-6.362;2023-05-07T04:06:17;2.30;;;0.98;;
37787;SDS011;23627;53.302;-6.362;2023-05-07T04:08:43;2.05;;;0.98;;
37787;SDS011;23627;53.302;-6.362;2023-05-07T04:11:08;3.60;;;0.73;;
37787;SDS011;23627;53.302;-6.362;2023-05-07T04:13:34;2.83;;;0.98;;
37787;SDS011;23627;53.302;-6.362;2023-05-07T04:16:01;2.17;;;0.85;;
37787;SDS011;23627;53.302;-6.362;2023-05-07T04:18:28;2.75;;;1.05;;
37787;SDS011;23627;53.302;-6.362;2023-05-07T04:20:54;2.70;;;1.00;;
37787;SDS011;23627;53.302;-6.362;2023-05-07T04:23:20;1.60;;;0.98;;
37787;SDS011;23627;53.302;-6.362;2023-05-07T04:25:46;1.88;;;0.90;;
37787;SDS011;23627;53.302;-6.362;2023-05-07T04:28:11;1.67;;;0.90;;
37787;SDS011;23627;53.302;-6.362;2023-05-07T04:30:37;2.05;;;0.70;;
37787;SDS011;23627;53.302;-6.362;2023-05-07T04:33:04;1.02;;;0.80;;
37787;SDS011;23627;53.302;-6.362;2023-05-07T04:35:29;2.42;;;0.90;;
37787;SDS011;23627;53.302;-6.362;2023-05-07T04:37:55;1.75;;;1.00;;
37787;SDS011;23627;53.302;-6.362;2023-05-07T04:40:21;1.40;;;0.73;;
37787;SDS011;23627;53.302;-6.362;2023-05-07T04:42:47;1.65;;;0.88;;
37787;SDS011;23627;53.302;-6.362;2023-05-07T04:45:13;3.03;;;0.98;;
37787;SDS011;23627;53.302;-6.362;2023-05-07T04:47:39;1.73;;;1.00;;
37787;SDS011;23627;53.302;-6.362;2023-05-07T04:50:05;1.45;;;0.90;;
37787;SDS011;23627;53.302;-6.362;2023-05-07T04:52:31;1.85;;;0.93;;
37787;SDS011;23627;53.302;-6.362;2023-05-07T04:54:58;1.70;;;0.85;;
37787;SDS011;23627;53.302;-6.362;2023-05-07T04:57:25;3.25;;;1.13;;
37787;SDS011;23627;53.302;-6.362;2023-05-07T04:59:51;2.17;;;1.00;;
37787;SDS011;23627;53.302;-6.362;2023-05-07T05:02:17;1.85;;;1.00;;
37787;SDS011;23627;53.302;-6.362;2023-05-07T05:04:43;1.45;;;1.02;;
37787;SDS011;23627;53.302;-6.362;2023-05-07T05:07:08;2.40;;;1.00;;
37787;SDS011;23627;53.302;-6.362;2023-05-07T05:09:34;1.85;;;1.00;;
37787;SDS011;23627;53.302;-6.362;2023-05-07T05:12:00;2.70;;;1.10;;
37787;SDS011;23627;53.302;-6.362;2023-05-07T05:14:26;1.83;;;0.98;;
37787;SDS011;23627;53.302;-6.362;2023-05-07T05:16:51;2.85;;;1.13;;
37787;SDS011;23627;53.302;-6.362;2023-05-07T05:19:17;2.10;;;0.88;;
37787;SDS011;23627;53.302;-6.362;2023-05-07T05:21:43;1.60;;;0.90;;
37787;SDS011;23627;53.302;-6.362;2023-05-07T05:24:09;2.70;;;1.08;;
37787;SDS011;23627;53.302;-6.362;2023-05-07T05:26:35;1.95;;;0.90;;
37787;SDS011;23627;53.302;-6.362;2023-05-07T05:29:00;1.63;;;0.70;;
37787;SDS011;23627;53.302;-6.362;2023-05-07T05:31:26;2.28;;;0.98;;
37787;SDS011;23627;53.302;-6.362;2023-05-07T05:33:52;2.00;;;0.95;;
37787;SDS011;23627;53.302;-6.362;2023-05-07T05:36:17;2.60;;;0.73;;
37787;SDS011;23627;53.302;-6.362;2023-05-07T05:38:43;1.85;;;1.00;;
37787;SDS011;23627;53.302;-6.362;2023-05-07T05:41:09;3.05;;;1.00;;
37787;SDS011;23627;53.302;-6.362;2023-05-07T05:43:35;2.17;;;0.90;;
37787;SDS011;23627;53.302;-6.362;2023-05-07T05:46:01;2.00;;;0.73;;
37787;SDS011;23627;53.302;-6.362;2023-05-07T05:48:29;1.63;;;0.80;;
37787;SDS011;23627;53.302;-6.362;2023-05-07T05:50:55;2.17;;;0.77;;
37787;SDS011;23627;53.302;-6.362;2023-05-07T05:53:20;1.95;;;0.80;;
37787;SDS011;23627;53.302;-6.362;2023-05-07T05:55:46;1.73;;;0.88;;
37787;SDS011;23627;53.302;-6.362;2023-05-07T05:58:12;1.85;;;0.80;;
37787;SDS011;23627;53.302;-6.362;2023-05-07T06:00:40;1.20;;;0.70;;
37787;SDS011;23627;53.302;-6.362;2023-05-07T06:03:05;2.42;;;0.75;;
37787;SDS011;23627;53.302;-6.362;2023-05-07T06:05:31;1.48;;;0.70;;
37787;SDS011;23627;53.302;-6.362;2023-05-07T06:07:57;1.58;;;0.70;;
37787;SDS011;23627;53.302;-6.362;2023-05-07T06:10:23;1.80;;;0.90;;
37787;SDS011;23627;53.302;-6.362;2023-05-07T06:12:49;1.95;;;0.73;;
37787;SDS011;23627;53.302;-6.362;2023-05-07T06:15:15;1.60;;;0.80;;
37787;SDS011;23627;53.302;-6.362;2023-05-07T06:17:40;1.58;;;0.80;;
37787;SDS011;23627;53.302;-6.362;2023-05-07T06:20:06;1.90;;;1.40;;
37787;SDS011;23627;53.302;-6.362;2023-05-07T06:22:32;3.55;;;0.95;;
37787;SDS011;23627;53.302;-6.362;2023-05-07T06:24:58;2.92;;;0.98;;
37787;SDS011;23627;53.302;-6.362;2023-05-07T06:27:24;2.42;;;1.00;;
37787;SDS011;23627;53.302;-6.362;2023-05-07T06:29:50;2.65;;;0.90;;
37787;SDS011;23627;53.302;-6.362;2023-05-07T06:32:15;2.25;;;0.80;;
37787;SDS011;23627;53.302;-6.362;2023-05-07T06:34:42;1.63;;;0.90;;
37787;SDS011;23627;53.302;-6.362;2023-05-07T06:37:08;1.70;;;0.93;;
37787;SDS011;23627;53.302;-6.362;2023-05-07T06:39:33;2.38;;;0.85;;
37787;SDS011;23627;53.302;-6.362;2023-05-07T06:42:00;2.00;;;0.80;;
37787;SDS011;23627;53.302;-6.362;2023-05-07T06:44:27;2.45;;;0.95;;
37787;SDS011;23627;53.302;-6.362;2023-05-07T06:46:52;1.40;;;0.68;;
37787;SDS011;23627;53.302;-6.362;2023-05-07T06:49:18;1.55;;;0.80;;
37787;SDS011;23627;53.302;-6.362;2023-05-07T06:51:44;2.40;;;0.70;;
37787;SDS011;23627;53.302;-6.362;2023-05-07T06:54:10;1.48;;;0.80;;
37787;SDS011;23627;53.302;-6.362;2023-05-07T06:56:35;1.25;;;0.73;;
37787;SDS011;23627;53.302;-6.362;2023-05-07T06:59:01;2.30;;;1.00;;
37787;SDS011;23627;53.302;-6.362;2023-05-07T07:01:29;2.28;;;1.02;;
37787;SDS011;23627;53.302;-6.362;2023-05-07T07:03:55;2.28;;;0.75;;
37787;SDS011;23627;53.302;-6.362;2023-05-07T07:06:21;1.25;;;0.80;;
37787;SDS011;23627;53.302;-6.362;2023-05-07T07:08:46;2.45;;;0.82;;
37787;SDS011;23627;53.302;-6.362;2023-05-07T07:11:12;1.42;;;0.70;;
37787;SDS011;23627;53.302;-6.362;2023-05-07T07:13:38;2.33;;;0.70;;
37787;SDS011;23627;53.302;-6.362;2023-05-07T07:16:08;1.50;;;0.98;;
37787;SDS011;23627;53.302;-6.362;2023-05-07T07:18:34;1.85;;;1.02;;
37787;SDS011;23627;53.302;-6.362;2023-05-07T07:21:00;1.80;;;0.90;;
37787;SDS011;23627;53.302;-6.362;2023-05-07T07:23:26;3.40;;;1.40;;
37787;SDS011;23627;53.302;-6.362;2023-05-07T07:25:52;2.20;;;1.17;;
37787;SDS011;23627;53.302;-6.362;2023-05-07T07:28:20;2.17;;;1.00;;
37787;SDS011;23627;53.302;-6.362;2023-05-07T07:30:46;3.15;;;1.10;;
37787;SDS011;23627;53.302;-6.362;2023-05-07T07:33:12;3.05;;;1.20;;
37787;SDS011;23627;53.302;-6.362;2023-05-07T07:35:38;2.10;;;1.10;;
37787;SDS011;23627;53.302;-6.362;2023-05-07T07:38:07;2.35;;;1.20;;
37787;SDS011;23627;53.302;-6.362;2023-05-07T07:40:34;2.70;;;1.20;;
37787;SDS011;23627;53.302;-6.362;2023-05-07T07:43:00;3.22;;;1.10;;
37787;SDS011;23627;53.302;-6.362;2023-05-07T07:45:26;2.30;;;1.05;;
37787;SDS011;23627;53.302;-6.362;2023-05-07T07:47:52;1.75;;;0.88;;
37787;SDS011;23627;53.302;-6.362;2023-05-07T07:50:18;2.65;;;1.08;;
37787;SDS011;23627;53.302;-6.362;2023-05-07T07:52:44;1.75;;;1.17;;
37787;SDS011;23627;53.302;-6.362;2023-05-07T07:55:11;1.90;;;1.00;;
37787;SDS011;23627;53.302;-6.362;2023-05-07T07:57:37;2.03;;;0.90;;
37787;SDS011;23627;53.302;-6.362;2023-05-07T08:00:03;1.38;;;0.90;;
37787;SDS011;23627;53.302;-6.362;2023-05-07T08:02:30;1.52;;;1.20;;
37787;SDS011;23627;53.302;-6.362;2023-05-07T08:04:56;1.27;;;0.88;;
37787;SDS011;23627;53.302;-6.362;2023-05-07T08:07:22;1.08;;;0.90;;
37787;SDS011;23627;53.302;-6.362;2023-05-07T08:09:48;1.95;;;1.00;;
37787;SDS011;23627;53.302;-6.362;2023-05-07T08:12:14;1.63;;;0.80;;
37787;SDS011;23627;53.302;-6.362;2023-05-07T08:14:40;1.77;;;1.02;;
37787;SDS011;23627;53.302;-6.362;2023-05-07T08:17:06;1.30;;;0.70;;
37787;SDS011;23627;53.302;-6.362;2023-05-07T08:19:32;1.50;;;0.80;;
37787;SDS011;23627;53.302;-6.362;2023-05-07T08:21:58;1.10;;;0.73;;
37787;SDS011;23627;53.302;-6.362;2023-05-07T08:24:23;1.05;;;0.70;;
37787;SDS011;23627;53.302;-6.362;2023-05-07T08:26:49;1.60;;;0.65;;
37787;SDS011;23627;53.302;-6.362;2023-05-07T08:29:15;2.03;;;0.80;;
37787;SDS011;23627;53.302;-6.362;2023-05-07T08:31:41;2.20;;;0.90;;
37787;SDS011;23627;53.302;-6.362;2023-05-07T08:34:07;2.00;;;0.80;;
37787;SDS011;23627;53.302;-6.362;2023-05-07T08:36:32;1.00;;;0.57;;
37787;SDS011;23627;53.302;-6.362;2023-05-07T08:38:59;2.85;;;0.93;;
37787;SDS011;23627;53.302;-6.362;2023-05-07T08:41:25;1.25;;;0.85;;
37787;SDS011;23627;53.302;-6.362;2023-05-07T08:43:51;1.48;;;0.65;;
37787;SDS011;23627;53.302;-6.362;2023-05-07T08:46:18;1.35;;;0.60;;
37787;SDS011;23627;53.302;-6.362;2023-05-07T08:48:48;1.73;;;0.80;;
37787;SDS011;23627;53.302;-6.362;2023-05-07T08:51:19;0.93;;;0.70;;
37787;SDS011;23627;53.302;-6.362;2023-05-07T08:53:46;1.42;;;0.60;;
37787;SDS011;23627;53.302;-6.362;2023-05-07T08:56:16;1.25;;;0.50;;
37787;SDS011;23627;53.302;-6.362;2023-05-07T08:58:43;1.95;;;0.70;;
37787;SDS011;23627;53.302;-6.362;2023-05-07T09:01:10;1.35;;;0.68;;
37787;SDS011;23627;53.302;-6.362;2023-05-07T09:03:39;1.30;;;0.70;;
37787;SDS011;23627;53.302;-6.362;2023-05-07T09:06:06;1.50;;;0.80;;
37787;SDS011;23627;53.302;-6.362;2023-05-07T09:08:35;1.77;;;0.70;;
37787;SDS011;23627;53.302;-6.362;2023-05-07T09:11:01;1.60;;;0.80;;
37787;SDS011;23627;53.302;-6.362;2023-05-07T09:13:27;2.42;;;0.88;;
37787;SDS011;23627;53.302;-6.362;2023-05-07T09:15:54;1.20;;;0.73;;
37787;SDS011;23627;53.302;-6.362;2023-05-07T09:18:20;1.83;;;0.90;;
37787;SDS011;23627;53.302;-6.362;2023-05-07T09:20:46;1.77;;;0.70;;
37787;SDS011;23627;53.302;-6.362;2023-05-07T09:23:12;1.17;;;0.60;;
37787;SDS011;23627;53.302;-6.362;2023-05-07T09:25:39;2.08;;;0.70;;
37787;SDS011;23627;53.302;-6.362;2023-05-07T09:28:04;2.40;;;0.70;;
37787;SDS011;23627;53.302;-6.362;2023-05-07T09:30:35;1.50;;;0.70;;
37787;SDS011;23627;53.302;-6.362;2023-05-07T09:33:02;2.05;;;0.63;;
37787;SDS011;23627;53.302;-6.362;2023-05-07T09:35:29;1.80;;;0.77;;
37787;SDS011;23627;53.302;-6.362;2023-05-07T09:37:59;1.10;;;0.60;;
37787;SDS011;23627;53.302;-6.362;2023-05-07T09:40:26;1.33;;;0.60;;
37787;SDS011;23627;53.302;-6.362;2023-05-07T09:42:53;0.80;;;0.40;;
37787;SDS011;23627;53.302;-6.362;2023-05-07T09:45:26;2.33;;;0.80;;
37787;SDS011;23627;53.302;-6.362;2023-05-07T09:47:56;2.13;;;0.60;;
37787;SDS011;23627;53.302;-6.362;2023-05-07T09:50:26;1.73;;;0.60;;
37787;SDS011;23627;53.302;-6.362;2023-05-07T09:52:54;18.75;;;1.50;;
37787;SDS011;23627;53.302;-6.362;2023-05-07T09:55:21;6.15;;;0.80;;
37787;SDS011;23627;53.302;-6.362;2023-05-07T09:57:51;3.08;;;0.70;;
37787;SDS011;23627;53.302;-6.362;2023-05-07T10:00:18;2.40;;;0.70;;
37787;SDS011;23627;53.302;-6.362;2023-05-07T10:02:47;6.35;;;1.00;;
37787;SDS011;23627;53.302;-6.362;2023-05-07T10:05:16;2.45;;;0.80;;
37787;SDS011;23627;53.302;-6.362;2023-05-07T10:07:42;2.45;;;0.73;;
37787;SDS011;23627;53.302;-6.362;2023-05-07T10:10:09;2.65;;;0.60;;
37787;SDS011;23627;53.302;-6.362;2023-05-07T10:12:36;2.60;;;0.70;;
37787;SDS011;23627;53.302;-6.362;2023-05-07T10:15:07;4.32;;;0.98;;
37787;SDS011;23627;53.302;-6.362;2023-05-07T10:17:40;2.22;;;0.52;;
37787;SDS011;23627;53.302;-6.362;2023-05-07T10:20:06;3.03;;;0.68;;
37787;SDS011;23627;53.302;-6.362;2023-05-07T10:22:43;29.90;;;2.28;;
37787;SDS011;23627;53.302;-6.362;2023-05-07T10:25:14;10.02;;;1.10;;
37787;SDS011;23627;53.302;-6.362;2023-05-07T10:27:48;4.28;;;0.85;;
37787;SDS011;23627;53.302;-6.362;2023-05-07T10:33:09;3.17;;;0.70;;
37787;SDS011;23627;53.302;-6.362;2023-05-07T10:35:43;5.57;;;0.80;;
37787;SDS011;23627;53.302;-6.362;2023-05-07T10:38:10;6.30;;;0.90;;
37787;SDS011;23627;53.302;-6.362;2023-05-07T10:40:36;3.53;;;0.70;;
37787;SDS011;23627;53.302;-6.362;2023-05-07T10:43:03;4.82;;;0.80;;
37787;SDS011;23627;53.302;-6.362;2023-05-07T10:45:33;5.78;;;0.90;;
37787;SDS011;23627;53.302;-6.362;2023-05-07T10:48:05;3.15;;;0.73;;
37787;SDS011;23627;53.302;-6.362;2023-05-07T10:50:35;2.05;;;0.60;;
37787;SDS011;23627;53.302;-6.362;2023-05-07T10:55:46;4.10;;;1.02;;
37787;SDS011;23627;53.302;-6.362;2023-05-07T10:58:26;2.40;;;0.57;;
37787;SDS011;23627;53.302;-6.362;2023-05-07T11:01:00;2.38;;;0.70;;
37787;SDS011;23627;53.302;-6.362;2023-05-07T11:03:27;2.63;;;0.70;;
37787;SDS011;23627;53.302;-6.362;2023-05-07T11:06:10;1.73;;;0.70;;
37787;SDS011;23627;53.302;-6.362;2023-05-07T11:08:53;1.75;;;0.70;;
37787;SDS011;23627;53.302;-6.362;2023-05-07T11:11:20;3.35;;;0.60;;
37787;SDS011;23627;53.302;-6.362;2023-05-07T11:17:06;1.60;;;0.70;;
37787;SDS011;23627;53.302;-6.362;2023-05-07T11:19:51;2.17;;;0.63;;
37787;SDS011;23627;53.302;-6.362;2023-05-07T11:24:55;3.17;;;0.70;;
37787;SDS011;23627;53.302;-6.362;2023-05-07T11:27:23;3.55;;;0.80;;
37787;SDS011;23627;53.302;-6.362;2023-05-07T11:29:49;1.88;;;0.60;;
37787;SDS011;23627;53.302;-6.362;2023-05-07T11:32:15;1.30;;;0.70;;
37787;SDS011;23627;53.302;-6.362;2023-05-07T11:34:54;0.90;;;0.60;;
37787;SDS011;23627;53.302;-6.362;2023-05-07T11:37:21;2.20;;;0.80;;
37787;SDS011;23627;53.302;-6.362;2023-05-07T11:39:48;2.88;;;0.80;;
37787;SDS011;23627;53.302;-6.362;2023-05-07T11:42:33;1.58;;;0.60;;
37787;SDS011;23627;53.302;-6.362;2023-05-07T11:45:00;1.73;;;0.70;;
37787;SDS011;23627;53.302;-6.362;2023-05-07T11:47:29;2.20;;;0.80;;
37787;SDS011;23627;53.302;-6.362;2023-05-07T11:49:56;1.85;;;0.80;;
37787;SDS011;23627;53.302;-6.362;2023-05-07T11:52:23;1.20;;;0.70;;
37787;SDS011;23627;53.302;-6.362;2023-05-07T11:54:50;1.60;;;0.75;;
37787;SDS011;23627;53.302;-6.362;2023-05-07T11:57:17;2.20;;;0.70;;
37787;SDS011;23627;53.302;-6.362;2023-05-07T11:59:42;3.00;;;0.85;;
37787;SDS011;23627;53.302;-6.362;2023-05-07T12:02:15;2.83;;;1.00;;
37787;SDS011;23627;53.302;-6.362;2023-05-07T12:04:42;1.30;;;0.70;;
37787;SDS011;23627;53.302;-6.362;2023-05-07T12:07:14;1.48;;;0.70;;
37787;SDS011;23627;53.302;-6.362;2023-05-07T12:09:41;1.40;;;0.80;;
37787;SDS011;23627;53.302;-6.362;2023-05-07T12:12:08;1.40;;;0.60;;
37787;SDS011;23627;53.302;-6.362;2023-05-07T12:14:39;2.05;;;0.70;;
37787;SDS011;23627;53.302;-6.362;2023-05-07T12:17:05;1.50;;;0.80;;
37787;SDS011;23627;53.302;-6.362;2023-05-07T12:19:33;1.75;;;0.60;;
37787;SDS011;23627;53.302;-6.362;2023-05-07T12:21:59;1.55;;;0.75;;
37787;SDS011;23627;53.302;-6.362;2023-05-07T12:24:26;1.42;;;0.60;;
37787;SDS011;23627;53.302;-6.362;2023-05-07T12:26:52;1.55;;;0.73;;
37787;SDS011;23627;53.302;-6.362;2023-05-07T12:29:21;0.77;;;0.60;;
37787;SDS011;23627;53.302;-6.362;2023-05-07T12:31:47;0.90;;;0.47;;
37787;SDS011;23627;53.302;-6.362;2023-05-07T12:34:14;2.40;;;0.70;;
37787;SDS011;23627;53.302;-6.362;2023-05-07T12:36:40;0.80;;;0.60;;
37787;SDS011;23627;53.302;-6.362;2023-05-07T12:39:06;1.88;;;0.52;;
37787;SDS011;23627;53.302;-6.362;2023-05-07T12:41:35;0.93;;;0.50;;
37787;SDS011;23627;53.302;-6.362;2023-05-07T12:44:23;1.38;;;0.70;;
37787;SDS011;23627;53.302;-6.362;2023-05-07T12:46:50;1.20;;;0.45;;
37787;SDS011;23627;53.302;-6.362;2023-05-07T12:49:16;1.10;;;0.50;;
37787;SDS011;23627;53.302;-6.362;2023-05-07T12:51:46;1.10;;;0.60;;
37787;SDS011;23627;53.302;-6.362;2023-05-07T12:54:13;0.90;;;0.60;;
37787;SDS011;23627;53.302;-6.362;2023-05-07T12:56:59;0.85;;;0.60;;
37787;SDS011;23627;53.302;-6.362;2023-05-07T13:01:59;1.10;;;0.60;;
37787;SDS011;23627;53.302;-6.362;2023-05-07T13:04:25;1.50;;;0.50;;
37787;SDS011;23627;53.302;-6.362;2023-05-07T13:06:51;0.93;;;0.43;;
37787;SDS011;23627;53.302;-6.362;2023-05-07T13:09:18;2.13;;;0.63;;
37787;SDS011;23627;53.302;-6.362;2023-05-07T13:11:43;1.67;;;0.80;;
37787;SDS011;23627;53.302;-6.362;2023-05-07T13:14:09;0.85;;;0.75;;
37787;SDS011;23627;53.302;-6.362;2023-05-07T13:16:35;1.45;;;0.63;;
37787;SDS011;23627;53.302;-6.362;2023-05-07T13:19:00;1.33;;;0.70;;
37787;SDS011;23627;53.302;-6.362;2023-05-07T13:21:26;1.33;;;0.68;;
37787;SDS011;23627;53.302;-6.362;2023-05-07T13:23:52;1.38;;;0.70;;
37787;SDS011;23627;53.302;-6.362;2023-05-07T13:26:18;1.65;;;0.80;;
37787;SDS011;23627;53.302;-6.362;2023-05-07T13:28:44;2.00;;;0.65;;
37787;SDS011;23627;53.302;-6.362;2023-05-07T13:31:09;2.08;;;0.60;;
37787;SDS011;23627;53.302;-6.362;2023-05-07T13:33:35;0.77;;;0.60;;
37787;SDS011;23627;53.302;-6.362;2023-05-07T13:36:01;1.13;;;0.88;;
37787;SDS011;23627;53.302;-6.362;2023-05-07T13:38:29;2.10;;;0.80;;
37787;SDS011;23627;53.302;-6.362;2023-05-07T13:40:55;1.52;;;0.70;;
37787;SDS011;23627;53.302;-6.362;2023-05-07T13:43:21;1.42;;;0.90;;
37787;SDS011;23627;53.302;-6.362;2023-05-07T13:45:47;1.65;;;0.80;;
37787;SDS011;23627;53.302;-6.362;2023-05-07T13:48:13;1.60;;;0.57;;
37787;SDS011;23627;53.302;-6.362;2023-05-07T13:50:38;1.10;;;0.70;;
37787;SDS011;23627;53.302;-6.362;2023-05-07T13:53:04;1.27;;;0.80;;
37787;SDS011;23627;53.302;-6.362;2023-05-07T13:55:30;0.93;;;0.60;;
37787;SDS011;23627;53.302;-6.362;2023-05-07T13:58:00;1.83;;;0.60;;
37787;SDS011;23627;53.302;-6.362;2023-05-07T14:00:27;1.67;;;0.60;;
37787;SDS011;23627;53.302;-6.362;2023-05-07T14:02:54;1.27;;;0.70;;
37787;SDS011;23627;53.302;-6.362;2023-05-07T14:05:21;1.02;;;0.60;;
37787;SDS011;23627;53.302;-6.362;2023-05-07T14:07:53;1.30;;;0.68;;
37787;SDS011;23627;53.302;-6.362;2023-05-07T14:10:19;0.98;;;0.70;;
37787;SDS011;23627;53.302;-6.362;2023-05-07T14:12:45;1.00;;;0.50;;
37787;SDS011;23627;53.302;-6.362;2023-05-07T14:15:11;1.75;;;0.73;;
37787;SDS011;23627;53.302;-6.362;2023-05-07T14:17:37;2.03;;;0.73;;
37787;SDS011;23627;53.302;-6.362;2023-05-07T14:20:03;1.60;;;0.60;;
37787;SDS011;23627;53.302;-6.362;2023-05-07T14:22:31;1.30;;;0.80;;
37787;SDS011;23627;53.302;-6.362;2023-05-07T14:24:57;0.90;;;0.57;;
37787;SDS011;23627;53.302;-6.362;2023-05-07T14:27:22;1.50;;;0.70;;
37787;SDS011;23627;53.302;-6.362;2023-05-07T14:29:48;0.98;;;0.77;;
37787;SDS011;23627;53.302;-6.362;2023-05-07T14:32:16;1.85;;;0.73;;
37787;SDS011;23627;53.302;-6.362;2023-05-07T14:34:43;1.30;;;0.60;;
37787;SDS011;23627;53.302;-6.362;2023-05-07T14:37:09;2.20;;;0.90;;
37787;SDS011;23627;53.302;-6.362;2023-05-07T14:39:35;1.80;;;0.75;;
37787;SDS011;23627;53.302;-6.362;2023-05-07T14:42:01;2.25;;;0.85;;
37787;SDS011;23627;53.302;-6.362;2023-05-07T14:44:27;1.67;;;0.60;;
37787;SDS011;23627;53.302;-6.362;2023-05-07T14:46:52;1.85;;;0.70;;